Weather at Arnolds Airport

Public forecast

Using degrees Fahrenheit for public forecast. Weather courtesy of forecast.io.

Closest aviation weather report (METAR) to Arnolds Airport

Report is more than 6 hours old.

Closest report is Lebanon Springfield Airport, 4.4 nm (8.1 km) WSW. Retrieved 2021/06/21 19:00 UTC (1 day ago):

K6I2 211900Z AUTO 28006KT 1/2SM -RA BKN005 BKN020 OVC070 20/20 A2976 RMK AO2

Closest aviation forecast (TAF) to Arnolds Airport

Forecast is more than 6 hours old.

Closest forecast is Blue Grass Airport, 34.6 nm (64.1 km) NE. Retrieved 2021/06/22 18:22 UTC (8 hours ago):

TAF KLEX 221720Z 2218/2318 35010KT P6SM FEW060 FM230000 VRB03KT P6SM SKC FM231300 11011KT P6SM FEW200